createdAt,value
2022-10-06T00:00:03.349Z,20.02
2022-10-06T00:02:29.849Z,20.00
2022-10-06T00:04:56.413Z,20.01
2022-10-06T00:07:22.865Z,20.01
2022-10-06T00:09:49.317Z,20.01
2022-10-06T00:12:15.787Z,20.00
2022-10-06T00:14:42.316Z,20.00
2022-10-06T00:17:08.828Z,19.99
2022-10-06T00:19:35.341Z,20.00
2022-10-06T00:22:01.781Z,20.01
2022-10-06T00:24:28.326Z,20.00
2022-10-06T00:26:54.784Z,20.00
2022-10-06T00:29:21.230Z,19.99
2022-10-06T00:31:47.701Z,20.00
2022-10-06T00:34:14.157Z,19.99
2022-10-06T00:36:40.618Z,19.99
2022-10-06T00:39:07.176Z,19.99
2022-10-06T00:41:33.698Z,19.99
2022-10-06T00:44:00.539Z,19.98
2022-10-06T00:46:34.984Z,19.98
2022-10-06T00:49:12.685Z,19.98
2022-10-06T00:51:44.218Z,19.98
2022-10-06T00:54:11.232Z,19.98
2022-10-06T00:56:40.105Z,19.97
2022-10-06T00:59:14.566Z,19.97
2022-10-06T01:01:46.380Z,19.97
2022-10-06T01:04:15.186Z,19.97
2022-10-06T01:06:45.997Z,19.97
2022-10-06T01:09:15.654Z,19.97
2022-10-06T01:11:42.916Z,19.97
2022-10-06T01:14:10.301Z,19.97
2022-10-06T01:16:39.629Z,19.98
2022-10-06T01:19:17.542Z,19.97
2022-10-06T01:21:49.531Z,19.96
2022-10-06T01:24:18.260Z,19.96
2022-10-06T01:26:48.802Z,19.96
2022-10-06T01:29:15.422Z,19.96
2022-10-06T01:31:41.904Z,19.95
2022-10-06T01:34:09.666Z,19.95
2022-10-06T01:36:36.140Z,19.94
2022-10-06T01:39:02.634Z,19.95
2022-10-06T01:41:30.762Z,19.95
2022-10-06T01:43:57.241Z,19.94
2022-10-06T01:46:23.789Z,19.94
2022-10-06T01:48:50.411Z,19.95
2022-10-06T01:51:17.153Z,19.96
2022-10-06T01:53:43.645Z,19.95
2022-10-06T01:56:10.875Z,19.96
2022-10-06T01:58:37.385Z,19.94
2022-10-06T02:01:09.079Z,19.94
2022-10-06T02:03:36.667Z,19.95
2022-10-06T02:06:03.802Z,19.94
2022-10-06T02:08:30.879Z,19.93
2022-10-06T02:10:57.741Z,19.94
2022-10-06T02:13:27.983Z,19.93
2022-10-06T02:15:58.236Z,19.93
2022-10-06T02:18:25.439Z,19.94
2022-10-06T02:20:52.182Z,19.94
2022-10-06T02:23:18.666Z,19.93
2022-10-06T02:25:45.094Z,19.93
2022-10-06T02:28:11.597Z,19.93
2022-10-06T02:30:38.117Z,19.93
2022-10-06T02:33:04.693Z,19.93
2022-10-06T02:35:31.202Z,19.93
2022-10-06T02:37:57.732Z,19.92
2022-10-06T02:40:24.282Z,19.91
2022-10-06T02:42:50.779Z,19.91
2022-10-06T02:45:17.432Z,19.92
2022-10-06T02:47:43.874Z,19.91
2022-10-06T02:50:10.354Z,19.91
2022-10-06T02:52:38.068Z,19.90
2022-10-06T02:55:06.277Z,19.91
2022-10-06T02:57:32.776Z,19.90
2022-10-06T02:59:59.234Z,19.90
2022-10-06T03:02:25.883Z,19.90
2022-10-06T03:04:52.448Z,19.90
2022-10-06T03:07:19.007Z,19.90
2022-10-06T03:09:45.489Z,19.90
2022-10-06T03:12:12.448Z,19.90
2022-10-06T03:14:39.003Z,19.89
2022-10-06T03:17:05.521Z,19.91
2022-10-06T03:19:31.981Z,19.90
2022-10-06T03:21:58.430Z,19.90
2022-10-06T03:24:24.868Z,19.90
2022-10-06T03:26:51.330Z,19.90
2022-10-06T03:29:17.786Z,19.89
2022-10-06T03:31:44.414Z,19.90
2022-10-06T03:34:11.937Z,19.90
2022-10-06T03:36:38.785Z,19.90
2022-10-06T03:39:06.268Z,19.90
2022-10-06T03:41:34.240Z,19.89
2022-10-06T03:44:01.114Z,19.90
2022-10-06T03:46:30.754Z,19.90
2022-10-06T03:48:57.879Z,19.89
2022-10-06T03:51:33.160Z,19.90
2022-10-06T03:54:00.372Z,19.89
2022-10-06T03:56:29.422Z,19.90
2022-10-06T03:59:01.202Z,19.89
2022-10-06T04:01:30.344Z,19.89
2022-10-06T04:03:58.658Z,19.89
2022-10-06T04:06:26.594Z,19.89
2022-10-06T04:08:54.194Z,19.88
2022-10-06T04:11:32.867Z,19.90
2022-10-06T04:14:01.521Z,19.90
2022-10-06T04:16:31.347Z,19.89
2022-10-06T04:19:01.466Z,19.90
2022-10-06T04:21:29.739Z,19.89
2022-10-06T04:23:58.025Z,19.89
2022-10-06T04:26:27.721Z,19.90
2022-10-06T04:28:54.458Z,19.89
2022-10-06T04:31:33.344Z,19.90
2022-10-06T04:34:01.065Z,19.89
2022-10-06T04:36:31.297Z,19.89
2022-10-06T04:39:00.452Z,19.89
2022-10-06T04:41:32.968Z,19.89
2022-10-06T04:44:00.739Z,19.90
2022-10-06T04:46:42.645Z,19.89
2022-10-06T04:49:14.680Z,19.89
2022-10-06T04:51:44.451Z,19.89
2022-10-06T04:54:11.102Z,19.89
2022-10-06T04:56:37.741Z,19.89
2022-10-06T04:59:04.307Z,19.89
2022-10-06T05:01:33.978Z,19.88
2022-10-06T05:04:02.000Z,19.88
2022-10-06T05:06:32.522Z,19.88
2022-10-06T05:09:01.405Z,19.89
2022-10-06T05:11:28.493Z,19.88
2022-10-06T05:13:57.143Z,19.89
2022-10-06T05:16:25.522Z,19.89
2022-10-06T05:18:52.201Z,19.88
2022-10-06T05:21:24.712Z,19.89
2022-10-06T05:23:51.373Z,19.88
2022-10-06T05:26:23.211Z,19.87
2022-10-06T05:28:50.373Z,19.89
2022-10-06T05:31:26.829Z,19.88
2022-10-06T05:33:54.424Z,19.88
2022-10-06T05:36:32.520Z,19.88
2022-10-06T05:38:59.446Z,19.87
2022-10-06T05:41:28.997Z,19.88
2022-10-06T05:43:55.637Z,19.88
2022-10-06T05:46:28.553Z,19.89
2022-10-06T05:48:58.266Z,19.87
2022-10-06T05:51:30.712Z,19.89
2022-10-06T05:53:58.371Z,19.87
2022-10-06T05:56:30.006Z,19.88
2022-10-06T05:58:57.936Z,19.88
2022-10-06T06:01:28.721Z,19.88
2022-10-06T06:04:02.610Z,19.89
2022-10-06T06:06:30.350Z,19.89
2022-10-06T06:09:06.712Z,19.88
2022-10-06T06:11:35.263Z,19.89
2022-10-06T06:14:07.061Z,19.89
2022-10-06T06:16:34.593Z,19.88
2022-10-06T06:19:01.630Z,19.90
2022-10-06T06:21:29.272Z,19.91
2022-10-06T06:23:56.135Z,19.96
2022-10-06T06:26:28.140Z,19.98
2022-10-06T06:29:01.313Z,20.00
2022-10-06T06:31:29.817Z,20.04
2022-10-06T06:33:58.277Z,20.05
2022-10-06T06:36:31.901Z,20.06
2022-10-06T06:38:58.875Z,20.07
2022-10-06T06:41:29.563Z,20.10
2022-10-06T06:43:56.190Z,20.10
2022-10-06T06:46:25.195Z,20.11
2022-10-06T06:48:53.276Z,20.11
2022-10-06T06:51:24.253Z,20.13
2022-10-06T06:53:51.947Z,20.13
2022-10-06T06:56:19.926Z,20.15
2022-10-06T06:58:50.255Z,20.14
2022-10-06T07:01:19.910Z,20.15
2022-10-06T07:03:57.731Z,20.15
2022-10-06T07:06:28.839Z,20.16
2022-10-06T07:08:57.175Z,20.15
2022-10-06T07:11:34.866Z,20.15
2022-10-06T07:14:04.705Z,20.16
2022-10-06T07:16:50.429Z,20.16
2022-10-06T07:19:36.376Z,20.17
2022-10-06T07:22:25.758Z,20.17
2022-10-06T07:25:12.865Z,20.17
2022-10-06T07:27:51.099Z,20.17
2022-10-06T07:30:19.524Z,20.17
2022-10-06T07:32:50.451Z,20.16
2022-10-06T07:35:20.343Z,20.17
2022-10-06T07:37:47.868Z,20.17
2022-10-06T07:40:14.978Z,20.17
2022-10-06T07:42:48.407Z,20.18
2022-10-06T07:45:35.306Z,20.17
2022-10-06T07:48:02.109Z,20.17
2022-10-06T07:50:28.697Z,20.17
2022-10-06T07:52:55.196Z,20.17
2022-10-06T07:55:21.785Z,20.17
2022-10-06T07:57:50.969Z,20.18
2022-10-06T08:00:23.092Z,20.17
2022-10-06T08:02:49.771Z,20.18
2022-10-06T08:05:16.302Z,20.17
2022-10-06T08:07:42.789Z,20.19
2022-10-06T08:10:09.388Z,20.19
2022-10-06T08:12:37.815Z,20.19
2022-10-06T08:15:07.515Z,20.20
2022-10-06T08:17:37.688Z,20.20
2022-10-06T08:20:06.793Z,20.19
2022-10-06T08:22:33.321Z,20.21
2022-10-06T08:25:07.266Z,20.22
2022-10-06T08:27:35.419Z,20.22
2022-10-06T08:30:03.329Z,20.23
2022-10-06T08:32:29.905Z,20.23
2022-10-06T08:34:56.811Z,20.23
2022-10-06T08:37:27.366Z,20.24
2022-10-06T08:39:54.755Z,20.25
2022-10-06T08:42:39.285Z,20.24
2022-10-06T08:45:24.122Z,20.26
2022-10-06T08:48:04.261Z,20.27
2022-10-06T08:50:38.881Z,20.27
2022-10-06T08:53:18.592Z,20.27
2022-10-06T08:56:04.329Z,20.29
2022-10-06T08:58:52.680Z,20.28
2022-10-06T09:01:25.866Z,20.27
2022-10-06T09:03:54.834Z,20.28
2022-10-06T09:06:38.026Z,20.29
2022-10-06T09:09:21.626Z,20.29
2022-10-06T09:12:02.456Z,20.29
2022-10-06T09:14:41.622Z,20.30
2022-10-06T09:17:17.445Z,20.30
2022-10-06T09:19:52.931Z,20.30
2022-10-06T09:22:22.784Z,20.31
2022-10-06T09:24:56.008Z,20.31
2022-10-06T09:27:36.647Z,20.32
2022-10-06T09:30:08.585Z,20.32
2022-10-06T09:32:36.335Z,20.32
2022-10-06T09:35:17.479Z,20.34
2022-10-06T09:38:08.797Z,20.33
2022-10-06T09:40:51.156Z,20.33
2022-10-06T09:43:26.867Z,20.35
2022-10-06T09:45:55.570Z,20.33
2022-10-06T09:48:25.188Z,20.34
2022-10-06T09:51:17.897Z,20.35
2022-10-06T09:54:03.922Z,20.34
2022-10-06T09:56:32.972Z,20.35
2022-10-06T09:59:01.814Z,20.35
2022-10-06T10:01:30.108Z,20.35
2022-10-06T10:04:20.973Z,20.36
2022-10-06T10:06:47.501Z,20.36
2022-10-06T10:09:21.870Z,20.36
2022-10-06T10:12:24.514Z,20.37
2022-10-06T10:14:52.106Z,20.37
2022-10-06T10:17:32.810Z,20.38
2022-10-06T10:20:01.431Z,20.38
2022-10-06T10:22:36.188Z,20.37
2022-10-06T10:25:08.969Z,20.39
2022-10-06T10:27:52.140Z,20.38
2022-10-06T10:30:18.701Z,20.39
2022-10-06T10:33:12.072Z,20.39
2022-10-06T10:35:46.476Z,20.39
2022-10-06T10:38:19.461Z,20.40
2022-10-06T10:40:53.872Z,20.39
2022-10-06T10:43:26.017Z,20.40
2022-10-06T10:46:16.810Z,20.40
2022-10-06T10:48:51.219Z,20.40
2022-10-06T10:51:34.461Z,20.41
2022-10-06T10:54:13.142Z,20.42
2022-10-06T10:56:40.239Z,20.41
2022-10-06T10:59:15.306Z,20.41
2022-10-06T11:01:47.938Z,20.43
2022-10-06T11:04:14.807Z,20.44
2022-10-06T11:06:54.353Z,20.45
2022-10-06T11:09:38.616Z,20.43
2022-10-06T11:12:34.302Z,20.42
2022-10-06T11:15:05.990Z,20.40
2022-10-06T11:17:44.890Z,20.39
2022-10-06T11:20:29.620Z,20.39
2022-10-06T11:23:21.504Z,20.39
2022-10-06T11:26:12.757Z,20.40
2022-10-06T11:28:57.219Z,20.40
2022-10-06T11:31:38.537Z,20.42
2022-10-06T11:34:06.579Z,20.42
2022-10-06T11:36:34.830Z,20.43
2022-10-06T11:39:24.362Z,20.41
2022-10-06T11:42:23.290Z,20.42
2022-10-06T11:45:02.713Z,20.47
2022-10-06T11:47:38.761Z,20.48
2022-10-06T11:50:31.316Z,20.51
2022-10-06T11:52:57.981Z,20.52
2022-10-06T11:55:28.794Z,20.54
2022-10-06T12:00:57.817Z,20.56
2022-10-06T12:03:31.158Z,20.57
2022-10-06T12:05:57.816Z,20.58
2022-10-06T12:08:39.203Z,20.60
2022-10-06T12:11:41.065Z,20.60
2022-10-06T12:17:41.615Z,20.62
2022-10-06T12:20:45.683Z,20.62
2022-10-06T12:23:26.338Z,20.63
2022-10-06T12:26:01.248Z,20.63
2022-10-06T12:28:40.965Z,20.63
2022-10-06T12:31:52.682Z,20.64
2022-10-06T12:34:38.073Z,20.65
2022-10-06T12:37:29.430Z,20.66
2022-10-06T12:40:40.987Z,20.67
2022-10-06T12:43:19.365Z,20.67
2022-10-06T12:46:19.570Z,20.67
2022-10-06T12:49:01.902Z,20.67
2022-10-06T12:51:34.915Z,20.68
2022-10-06T12:54:23.781Z,20.69
2022-10-06T12:57:16.169Z,20.69
2022-10-06T12:59:42.734Z,20.69
2022-10-06T13:02:10.203Z,20.70
2022-10-06T13:04:51.537Z,20.70
2022-10-06T13:07:18.033Z,20.71
2022-10-06T13:09:46.085Z,20.72
2022-10-06T13:12:28.450Z,20.71
2022-10-06T13:15:19.402Z,20.72
2022-10-06T13:18:00.260Z,20.73
2022-10-06T13:20:52.500Z,20.73
2022-10-06T13:23:24.386Z,20.73
2022-10-06T13:26:04.668Z,20.74
2022-10-06T13:28:37.015Z,20.74
2022-10-06T13:31:15.444Z,20.74
2022-10-06T13:33:44.343Z,20.75
2022-10-06T13:36:12.418Z,20.74
2022-10-06T13:38:41.226Z,20.74
2022-10-06T13:41:34.184Z,20.74
2022-10-06T13:44:03.469Z,20.75
2022-10-06T13:46:37.776Z,20.74
2022-10-06T13:49:18.350Z,20.74
2022-10-06T13:51:51.862Z,20.75
2022-10-06T13:54:29.518Z,20.75
2022-10-06T13:56:57.049Z,20.75
2022-10-06T13:59:39.400Z,20.77
2022-10-06T14:02:21.751Z,20.78
2022-10-06T14:05:22.956Z,20.77
2022-10-06T14:07:50.590Z,20.78
2022-10-06T14:10:31.251Z,20.77
2022-10-06T14:13:01.155Z,20.78
2022-10-06T14:15:32.690Z,20.78
2022-10-06T14:18:02.688Z,20.79
2022-10-06T14:20:40.055Z,20.79
2022-10-06T14:23:34.983Z,20.79
2022-10-06T14:26:01.584Z,20.78
2022-10-06T14:28:28.172Z,20.78
2022-10-06T14:30:56.411Z,20.76
2022-10-06T14:33:24.669Z,20.77
2022-10-06T14:35:51.522Z,20.76
2022-10-06T14:38:19.209Z,20.77
2022-10-06T14:40:45.997Z,20.77
2022-10-06T14:43:12.840Z,20.76
2022-10-06T14:45:43.682Z,20.76
2022-10-06T14:48:11.773Z,20.75
2022-10-06T14:50:38.267Z,20.74
2022-10-06T14:53:05.549Z,20.74
2022-10-06T14:55:32.032Z,20.74
2022-10-06T14:57:58.588Z,20.74
2022-10-06T15:00:28.453Z,20.74
2022-10-06T15:02:56.285Z,20.74
2022-10-06T15:05:23.873Z,20.73
2022-10-06T15:08:09.224Z,20.73
2022-10-06T15:10:38.073Z,20.74
2022-10-06T15:13:09.284Z,20.74
2022-10-06T15:15:38.010Z,20.73
2022-10-06T15:18:04.688Z,20.73
2022-10-06T15:20:31.280Z,20.73
2022-10-06T15:22:58.210Z,20.74
2022-10-06T15:25:43.861Z,20.75
2022-10-06T15:28:31.225Z,20.77
2022-10-06T15:30:58.540Z,20.78
2022-10-06T15:33:25.305Z,20.79
2022-10-06T15:36:16.319Z,20.79
2022-10-06T15:38:43.163Z,20.78
2022-10-06T15:41:10.229Z,20.79
2022-10-06T15:43:59.872Z,20.80
2022-10-06T15:46:37.177Z,20.80
2022-10-06T15:49:06.294Z,20.82
2022-10-06T15:51:48.718Z,20.82
2022-10-06T15:54:19.381Z,20.82
2022-10-06T15:56:54.193Z,20.82
2022-10-06T15:59:24.473Z,20.82
2022-10-06T16:02:00.391Z,20.82
2022-10-06T16:04:38.233Z,20.84
2022-10-06T16:07:05.784Z,20.83
2022-10-06T16:09:39.298Z,20.85
2022-10-06T16:12:11.256Z,20.85
2022-10-06T16:14:38.288Z,20.83
2022-10-06T16:17:06.584Z,20.83
2022-10-06T16:19:36.791Z,20.80
2022-10-06T16:22:04.942Z,20.78
2022-10-06T16:24:31.489Z,20.77
2022-10-06T16:26:59.802Z,20.75
2022-10-06T16:29:27.562Z,20.75
2022-10-06T16:31:54.259Z,20.72
2022-10-06T16:34:20.877Z,20.72
2022-10-06T16:36:47.367Z,20.70
2022-10-06T16:39:16.164Z,20.68
2022-10-06T16:41:43.212Z,20.67
2022-10-06T16:44:09.926Z,20.66
2022-10-06T16:46:36.779Z,20.64
2022-10-06T16:49:04.640Z,20.64
2022-10-06T16:51:33.664Z,20.62
2022-10-06T16:54:02.739Z,20.62
2022-10-06T16:56:41.360Z,20.61
2022-10-06T16:59:19.395Z,20.60
2022-10-06T17:01:46.799Z,20.59
2022-10-06T17:04:14.621Z,20.58
2022-10-06T17:06:44.025Z,20.59
2022-10-06T17:09:14.358Z,20.63
2022-10-06T17:11:47.165Z,20.66
2022-10-06T17:14:14.277Z,20.71
2022-10-06T17:16:42.624Z,20.72
2022-10-06T17:19:11.869Z,20.74
2022-10-06T17:21:48.097Z,20.76
2022-10-06T17:24:19.765Z,20.74
2022-10-06T17:26:48.844Z,20.73
2022-10-06T17:29:21.371Z,20.72
2022-10-06T17:31:50.462Z,20.70
2022-10-06T17:34:21.437Z,20.68
2022-10-06T17:36:50.971Z,20.67
2022-10-06T17:39:22.770Z,20.65
2022-10-06T17:41:51.883Z,20.64
2022-10-06T17:44:23.771Z,20.63
2022-10-06T17:46:53.036Z,20.62
2022-10-06T17:49:24.199Z,20.61
2022-10-06T17:51:53.825Z,20.61
2022-10-06T17:54:22.869Z,20.58
2022-10-06T17:56:52.129Z,20.58
2022-10-06T17:59:24.651Z,20.58
2022-10-06T18:01:53.823Z,20.57
2022-10-06T18:04:20.449Z,20.57
2022-10-06T18:06:47.775Z,20.56
2022-10-06T18:09:15.209Z,20.56
2022-10-06T18:11:43.855Z,20.56
2022-10-06T18:14:18.597Z,20.55
2022-10-06T18:16:55.079Z,20.55
2022-10-06T18:19:26.416Z,20.55
2022-10-06T18:21:56.529Z,20.53
2022-10-06T18:24:26.120Z,20.53
2022-10-06T18:26:54.878Z,20.52
2022-10-06T18:29:23.957Z,20.52
2022-10-06T18:31:52.617Z,20.51
2022-10-06T18:37:05.952Z,20.49
2022-10-06T18:39:33.477Z,20.50
2022-10-06T18:42:02.901Z,20.50
2022-10-06T18:44:48.141Z,20.49
2022-10-06T18:47:32.996Z,20.49
2022-10-06T18:49:59.449Z,20.48
2022-10-06T18:52:25.910Z,20.47
2022-10-06T18:54:52.410Z,20.47
2022-10-06T18:57:20.057Z,20.47
2022-10-06T18:59:49.247Z,20.46
2022-10-06T19:02:16.776Z,20.47
2022-10-06T19:04:43.393Z,20.45
2022-10-06T19:07:09.900Z,20.46
2022-10-06T19:09:36.360Z,20.46
2022-10-06T19:12:02.850Z,20.46
2022-10-06T19:14:32.387Z,20.46
2022-10-06T19:17:00.621Z,20.46
2022-10-06T19:19:28.715Z,20.46
2022-10-06T19:21:59.544Z,20.46
2022-10-06T19:24:58.596Z,20.46
2022-10-06T19:27:25.552Z,20.45
2022-10-06T19:29:54.723Z,20.45
2022-10-06T19:32:25.361Z,20.44
2022-10-06T19:34:52.343Z,20.45
2022-10-06T19:37:18.850Z,20.44
2022-10-06T19:39:48.084Z,20.43
2022-10-06T19:42:34.924Z,20.44
2022-10-06T19:45:01.793Z,20.42
2022-10-06T19:47:28.617Z,20.42
2022-10-06T19:49:58.922Z,20.43
2022-10-06T19:52:27.431Z,20.43
2022-10-06T19:54:53.972Z,20.43
2022-10-06T19:57:20.504Z,20.44
2022-10-06T19:59:47.020Z,20.41
2022-10-06T20:02:13.508Z,20.43
2022-10-06T20:04:40.451Z,20.42
2022-10-06T20:07:08.713Z,20.41
2022-10-06T20:09:35.733Z,20.42
2022-10-06T20:12:02.709Z,20.42
2022-10-06T20:14:29.433Z,20.41
2022-10-06T20:16:56.791Z,20.40
2022-10-06T20:19:25.436Z,20.40
2022-10-06T20:21:52.683Z,20.40
2022-10-06T20:24:24.910Z,20.40
2022-10-06T20:26:52.886Z,20.41
2022-10-06T20:29:25.135Z,20.40
2022-10-06T20:31:54.332Z,20.40
2022-10-06T20:34:24.669Z,20.39
2022-10-06T20:36:56.038Z,20.39
2022-10-06T20:39:41.892Z,20.39
2022-10-06T20:42:14.549Z,20.38
2022-10-06T20:44:42.371Z,20.39
2022-10-06T20:47:10.316Z,20.40
2022-10-06T20:49:36.949Z,20.39
2022-10-06T20:52:04.517Z,20.39
2022-10-06T20:54:34.717Z,20.39
2022-10-06T20:57:04.195Z,20.39
2022-10-06T20:59:32.091Z,20.38
2022-10-06T21:02:02.400Z,20.38
2022-10-06T21:04:30.339Z,20.38
2022-10-06T21:06:57.508Z,20.38
2022-10-06T21:09:24.487Z,20.37
2022-10-06T21:11:51.322Z,20.36
2022-10-06T21:14:18.253Z,20.37
2022-10-06T21:16:46.643Z,20.36
2022-10-06T21:19:16.372Z,20.36
2022-10-06T21:21:45.754Z,20.36
2022-10-06T21:24:12.287Z,20.36
2022-10-06T21:26:40.065Z,20.35
2022-10-06T21:29:07.251Z,20.35
2022-10-06T21:31:33.732Z,20.35
2022-10-06T21:34:01.321Z,20.35
2022-10-06T21:36:32.058Z,20.35
2022-10-06T21:39:00.985Z,20.35
2022-10-06T21:41:32.018Z,20.34
2022-10-06T21:44:10.527Z,20.33
2022-10-06T21:46:50.480Z,20.34
2022-10-06T21:49:21.837Z,20.35
2022-10-06T21:51:50.487Z,20.35
2022-10-06T21:54:17.558Z,20.35
2022-10-06T21:56:44.119Z,20.34
2022-10-06T21:59:11.593Z,20.35
2022-10-06T22:01:40.711Z,20.34
2022-10-06T22:04:07.395Z,20.35
2022-10-06T22:06:36.223Z,20.34
2022-10-06T22:09:03.645Z,20.34
2022-10-06T22:11:31.333Z,20.34
2022-10-06T22:14:00.709Z,20.35
2022-10-06T22:16:29.615Z,20.34
2022-10-06T22:18:56.490Z,20.33
2022-10-06T22:21:31.737Z,20.34
2022-10-06T22:24:01.009Z,20.32
2022-10-06T22:26:29.950Z,20.33
2022-10-06T22:28:57.894Z,20.32
2022-10-06T22:31:26.433Z,20.32
2022-10-06T22:33:55.643Z,20.31
2022-10-06T22:36:23.050Z,20.32
2022-10-06T22:38:49.445Z,20.33
2022-10-06T22:41:16.248Z,20.32
2022-10-06T22:43:42.871Z,20.32
2022-10-06T22:46:11.100Z,20.31
2022-10-06T22:48:38.385Z,20.31
2022-10-06T22:51:05.502Z,20.31
2022-10-06T22:53:32.555Z,20.30
2022-10-06T22:55:59.873Z,20.30
2022-10-06T22:58:27.079Z,20.31
2022-10-06T23:00:53.949Z,20.29
2022-10-06T23:03:20.592Z,20.30
2022-10-06T23:05:54.730Z,20.30
2022-10-06T23:08:21.335Z,20.31
2022-10-06T23:10:47.772Z,20.31
2022-10-06T23:13:14.404Z,20.30
2022-10-06T23:15:40.825Z,20.30
2022-10-06T23:18:08.179Z,20.31
2022-10-06T23:20:34.698Z,20.29
2022-10-06T23:23:01.317Z,20.30
2022-10-06T23:25:27.817Z,20.29
2022-10-06T23:27:54.306Z,20.29
2022-10-06T23:30:20.954Z,20.29
2022-10-06T23:32:47.407Z,20.30
2022-10-06T23:35:13.835Z,20.29
2022-10-06T23:37:40.333Z,20.29
2022-10-06T23:40:07.257Z,20.28
2022-10-06T23:42:33.715Z,20.29
2022-10-06T23:45:00.152Z,20.29
2022-10-06T23:47:26.607Z,20.28
2022-10-06T23:49:54.214Z,20.28
2022-10-06T23:52:20.672Z,20.28
2022-10-06T23:54:47.802Z,20.27
2022-10-06T23:57:14.306Z,20.27
2022-10-06T23:59:40.742Z,20.28
